Página principal
METAR-TAF:

METAR-TAF

Aeroportos :

Urgench, Uzbequistão

latitude: 41-35N, longitude: 060-38-42E, altura: 98 m

Observação actual do tempo

O boletim foi feito há 41 minutos, às 16:30 UTC
Vento 2 kt com direcção variável
Temperatura 21°C
Humidade 56%
Pressão 1011 hPa
Visibilidade: 6000 m

METAR: UTNU 181630Z VRB02KT 6000 NSC 21/12 Q1011 R31/CLRD70 NOSIG

Hora: 22:11 (17:11 UTC)

Previsão

O boletim foi feito há 6 horas e 11 minutos, às 11:00 UTC
Previsão válida de 18 às 12 UTC a 19 às 12 UTC
Vento 12 kt de oes-noroeste com rajadas de 22 kt
Visibilidade: 8000 m
Temporariamente
de 18 às 12 UTC a 18 às 18 UTC
Vento 8 kt de oeste

TAF: UTNU 181100Z 1812/1912 29012G22KT 8000 NSC TEMPO 1812/1818 26008KT

Observações e previsões do tempo de mais de 4000 aeroportos (mensagens METAR e TAF).

As estações disponíveis são os pontos amarelos e vermelhos sobre o mapa.

Mova o rato sobre o mapa para ver o nome da estação.

Depois clique no ponto para visualizar as observações e previsões meteorológicas.

Para alterar o mapa : clique nos botões verdes com uma cruz preta para aumentar o zoom; no botão verde com uma pitada de zoom; ou nas setas verdes para mapas adjacentes.


METAR-TAF: